Time;durP1;ratioP1;P1;durP2;ratioP2;P2;SDS_P1;SDS_P2;PMS_P1;PMS_P2;Temp;Humidity;BMP_temperature;BMP_pressure;BME280_temperature;BME280_humidity;BME280_pressure;Samples;Min_cycle;Max_cycle;Signal;HPM_P1;HPM_P2
2021/07/19 00:00:14;;;;;;;10.68;6.88;;;;;;;17.72;66.73;101445.41;6233882;22;20144;-85
2021/07/19 00:02:45;;;;;;;8.50;6.03;;;;;;;17.74;66.70;101446.22;6260565;22;20024;-86
2021/07/19 00:05:15;;;;;;;8.30;6.20;;;;;;;17.74;66.59;101440.94;6257745;22;20370;-86
2021/07/19 00:07:42;;;;;;;10.75;5.78;;;;;;;17.75;66.71;101440.03;6230889;22;20509;-86
2021/07/19 00:10:13;;;;;;;11.52;6.65;;;;;;;17.74;66.88;101438.28;6261835;22;20027;-87
2021/07/19 00:12:41;;;;;;;9.65;5.57;;;;;;;17.75;66.83;101441.81;6232713;22;20023;-86
2021/07/19 00:15:17;;;;;;;9.00;6.38;;;;;;;17.72;66.97;101436.59;6258073;22;20039;-86
2021/07/19 00:17:55;;;;;;;11.27;6.10;;;;;;;17.73;66.89;101433.03;6220366;23;20039;-86
2021/07/19 00:20:22;;;;;;;6.72;5.50;;;;;;;17.73;66.94;101433.91;6233113;23;20436;-85
2021/07/19 00:22:49;;;;;;;10.38;6.75;;;;;;;17.75;67.20;101437.38;6208154;23;20028;-87
2021/07/19 00:25:20;;;;;;;15.32;7.15;;;;;;;17.74;67.07;101432.13;6227910;23;20030;-86
2021/07/19 00:27:53;;;;;;;6.93;6.05;;;;;;;17.72;67.13;101445.41;6227926;22;20024;-85
2021/07/19 00:30:20;;;;;;;9.02;6.70;;;;;;;17.71;67.07;101441.03;6230166;22;20032;-87
2021/07/19 00:32:46;;;;;;;10.55;6.25;;;;;;;17.72;67.32;101444.53;6208161;23;20024;-86
2021/07/19 00:35:13;;;;;;;6.63;5.80;;;;;;;17.69;67.49;101435.78;6207590;23;20498;-87
2021/07/19 00:37:43;;;;;;;9.30;5.97;;;;;;;17.71;67.43;101445.47;6204965;23;20020;-86
2021/07/19 00:40:31;;;;;;;10.65;5.93;;;;;;;17.69;67.82;101442.81;6234801;23;20043;-86
2021/07/19 00:42:59;;;;;;;11.30;6.70;;;;;;;17.66;68.03;101450.88;6231498;23;20377;-86
2021/07/19 00:45:29;;;;;;;7.05;6.35;;;;;;;17.66;68.53;101442.91;6235871;22;20366;-85
2021/07/19 00:48:02;;;;;;;10.20;6.40;;;;;;;17.67;68.34;101447.31;6262865;22;20012;-86
2021/07/19 00:50:33;;;;;;;6.03;5.00;;;;;;;17.65;68.55;101447.34;6264875;22;20019;-87
2021/07/19 00:53:01;;;;;;;8.32;5.63;;;;;;;17.67;68.78;101444.66;6265741;22;20028;-85
2021/07/19 00:55:51;;;;;;;7.28;5.32;;;;;;;17.66;69.05;101442.91;6234942;22;20077;-86
2021/07/19 00:58:23;;;;;;;9.15;5.93;;;;;;;17.65;68.82;101443.81;6265399;22;20023;-87
2021/07/19 01:00:53;;;;;;;10.68;6.13;;;;;;;17.65;68.86;101443.81;6259780;22;20058;-87
2021/07/19 01:03:23;;;;;;;8.43;4.82;;;;;;;17.65;68.78;101444.72;6236518;22;20028;-85
2021/07/19 01:05:52;;;;;;;7.30;5.72;;;;;;;17.67;68.89;101444.66;6237080;22;20474;-85
2021/07/19 01:08:22;;;;;;;9.57;5.78;;;;;;;17.66;69.00;101437.63;6265249;22;20016;-87
2021/07/19 01:10:49;;;;;;;5.78;4.82;;;;;;;17.63;69.28;101441.22;6241222;22;20023;-86
2021/07/19 01:13:16;;;;;;;10.15;5.80;;;;;;;17.65;69.28;101438.53;6234071;22;20034;-85
2021/07/19 01:15:43;;;;;;;8.00;5.38;;;;;;;17.65;69.70;101443.81;6238417;22;20020;-86
2021/07/19 01:18:11;;;;;;;8.98;6.03;;;;;;;17.65;69.73;101439.41;6236869;22;20046;-86
2021/07/19 01:21:00;;;;;;;11.50;6.80;;;;;;;17.63;69.99;101437.72;6239734;22;20069;-87
2021/07/19 01:23:57;;;;;;;10.13;5.25;;;;;;;17.57;70.10;101435.22;6287420;22;20433;-88
2021/07/19 01:27:06;;;;;;;6.20;5.07;;;;;;;17.55;70.40;101427.31;6264420;22;20023;-86
2021/07/19 01:29:36;;;;;;;8.90;5.68;;;;;;;17.53;70.32;101429.13;6259741;22;20027;-86
2021/07/19 01:32:05;;;;;;;6.82;4.90;;;;;;;17.49;70.44;101430.97;6263494;22;20661;-85
2021/07/19 01:34:41;;;;;;;10.02;5.40;;;;;;;17.46;70.96;101428.41;6233134;22;20046;-85
2021/07/19 01:37:09;;;;;;;8.05;5.53;;;;;;;17.45;70.85;101428.47;6263733;22;20042;-86
2021/07/19 01:39:38;;;;;;;8.68;5.20;;;;;;;17.45;70.87;101433.75;6238817;22;20028;-85
2021/07/19 01:42:07;;;;;;;9.75;5.20;;;;;;;17.43;71.17;101425.84;6235843;22;20131;-85
2021/07/19 01:44:36;;;;;;;12.45;6.00;;;;;;;17.42;71.38;101429.41;6261501;22;20034;-85
2021/07/19 01:47:07;;;;;;;8.65;5.72;;;;;;;17.41;71.82;101440.03;6235335;22;20176;-86
2021/07/19 01:49:35;;;;;;;7.25;5.18;;;;;;;17.36;71.83;101435.72;6264583;22;20447;-86
2021/07/19 01:52:03;;;;;;;8.85;5.88;;;;;;;17.36;71.96;101440.13;6240072;22;20026;-86
2021/07/19 01:54:32;;;;;;;7.72;5.47;;;;;;;17.35;72.41;101435.75;6235440;22;20027;-86
2021/07/19 01:57:03;;;;;;;7.25;5.38;;;;;;;17.33;72.41;101446.38;6238300;22;20029;-86
2021/07/19 01:59:34;;;;;;;10.02;5.60;;;;;;;17.32;73.03;101444.63;6236458;22;20019;-87
2021/07/19 02:02:01;;;;;;;9.85;6.00;;;;;;;17.27;72.80;101441.22;6238114;22;20032;-86
2021/07/19 02:04:28;;;;;;;10.15;4.57;;;;;;;17.24;72.81;101437.81;6261291;22;20016;-86
2021/07/19 02:06:55;;;;;;;12.85;6.38;;;;;;;17.21;72.87;101438.75;6238501;22;20020;-87
2021/07/19 02:09:22;;;;;;;5.75;4.88;;;;;;;17.19;73.16;101436.16;6240155;22;20478;-86
2021/07/19 02:11:49;;;;;;;13.40;5.82;;;;;;;17.17;72.98;101437.09;6260298;22;20450;-84
2021/07/19 02:14:21;;;;;;;8.93;4.55;;;;;;;17.15;73.24;101442.38;6235886;22;20033;-87
2021/07/19 02:16:53;;;;;;;14.15;5.65;;;;;;;17.14;73.48;101437.16;6234717;22;20019;-87
2021/07/19 02:19:22;;;;;;;10.63;5.05;;;;;;;17.08;73.41;101437.28;6262476;22;20314;-86
2021/07/19 02:21:52;;;;;;;13.98;6.60;;;;;;;17.07;73.77;101438.22;6234986;22;20028;-86
2021/07/19 02:24:26;;;;;;;11.85;5.55;;;;;;;17.04;74.03;101433.88;6235777;22;20394;-86
2021/07/19 02:26:54;;;;;;;9.48;5.68;;;;;;;16.98;74.57;101434.84;6237141;22;20030;-85
2021/07/19 02:29:22;;;;;;;10.48;4.63;;;;;;;16.97;74.54;101438.44;6260747;22;20023;-85
2021/07/19 02:31:50;;;;;;;7.13;5.38;;;;;;;16.98;74.82;101431.34;6262131;22;20027;-86
2021/07/19 02:34:20;;;;;;;11.25;6.22;;;;;;;16.99;74.82;101436.59;6232844;22;20051;-87
2021/07/19 02:36:50;;;;;;;10.98;6.15;;;;;;;16.96;74.92;101438.44;6262291;22;20023;-86
2021/07/19 02:39:18;;;;;;;9.90;5.55;;;;;;;16.93;75.53;101447.31;6263512;22;20023;-85
2021/07/19 02:41:47;;;;;;;7.97;4.75;;;;;;;16.92;75.06;101442.06;6258226;22;20043;-86
2021/07/19 02:44:14;;;;;;;9.63;5.30;;;;;;;16.89;75.16;101445.63;6260067;22;20023;-86
2021/07/19 02:46:41;;;;;;;14.30;5.90;;;;;;;16.89;75.89;101440.31;6233527;22;20023;-86
2021/07/19 02:49:14;;;;;;;9.73;5.93;;;;;;;16.86;75.97;101443.91;6236491;22;20022;-86
2021/07/19 02:51:45;;;;;;;7.85;5.60;;;;;;;16.85;76.32;101446.59;6261258;22;20090;-87
2021/07/19 02:54:12;;;;;;;12.77;5.50;;;;;;;16.84;76.46;101453.66;6235229;22;20027;-86
2021/07/19 02:56:42;;;;;;;8.65;5.78;;;;;;;16.82;76.77;101444.03;6236784;22;20417;-87
2021/07/19 02:59:11;;;;;;;11.52;5.55;;;;;;;16.79;77.20;101442.31;6234674;22;20383;-86
2021/07/19 03:01:38;;;;;;;16.20;5.35;;;;;;;16.75;77.15;101442.41;6287347;22;20070;-86
2021/07/19 03:04:08;;;;;;;8.02;5.25;;;;;;;16.73;77.65;101453.03;6257135;22;20024;-87
2021/07/19 03:06:40;;;;;;;11.10;6.13;;;;;;;16.73;77.79;101449.53;6237929;22;20023;-85
2021/07/19 03:09:07;;;;;;;11.63;6.43;;;;;;;16.75;77.64;101450.34;6233691;22;20019;-87
2021/07/19 03:11:40;;;;;;;5.78;4.85;;;;;;;16.76;77.56;101452.94;6236634;22;20024;-86
2021/07/19 03:14:16;;;;;;;5.85;4.38;;;;;;;16.77;77.70;101459.97;6260205;22;20035;-87
2021/07/19 03:16:48;;;;;;;9.32;5.68;;;;;;;16.76;77.31;101458.22;6233907;22;20075;-87
2021/07/19 03:19:20;;;;;;;11.45;4.95;;;;;;;16.74;76.77;101454.78;6237841;22;20500;-87
2021/07/19 03:21:48;;;;;;;9.38;5.05;;;;;;;16.69;76.35;101446.94;6236111;22;20069;-86
2021/07/19 03:24:22;;;;;;;5.15;3.97;;;;;;;16.62;76.46;101449.75;6235713;22;20431;-88
2021/07/19 03:26:50;;;;;;;8.88;5.18;;;;;;;16.52;76.68;101447.28;6213298;22;20085;-87
2021/07/19 03:29:20;;;;;;;10.57;5.15;;;;;;;16.45;76.90;101458.03;6236819;22;20451;-86
2021/07/19 03:31:51;;;;;;;9.95;5.07;;;;;;;16.36;76.92;101459.97;6263083;22;20031;-85
2021/07/19 03:34:21;;;;;;;10.82;5.50;;;;;;;16.27;77.37;101457.50;6233114;22;20026;-87
2021/07/19 03:36:55;;;;;;;5.68;3.88;;;;;;;16.18;77.35;101458.56;6237836;22;20031;-87
2021/07/19 03:39:23;;;;;;;4.68;3.72;;;;;;;16.09;77.59;101458.72;6234258;22;20031;-86
2021/07/19 03:41:51;;;;;;;8.63;4.38;;;;;;;15.95;77.47;101458.13;6237287;22;20032;-87
2021/07/19 03:44:27;;;;;;;10.05;4.32;;;;;;;15.80;77.64;101460.09;6259037;22;20026;-84
2021/07/19 03:46:55;;;;;;;7.80;4.70;;;;;;;15.66;77.51;101462.97;6261274;22;20024;-85
2021/07/19 03:49:24;;;;;;;9.55;4.50;;;;;;;15.55;77.48;101471.09;6263559;22;20110;-85
2021/07/19 03:51:54;;;;;;;7.32;4.22;;;;;;;15.47;77.49;101466.81;6237658;22;20401;-85
2021/07/19 03:54:21;;;;;;;5.22;4.45;;;;;;;15.39;77.45;101464.31;6237585;22;20020;-90
2021/07/19 03:56:53;;;;;;;7.97;4.75;;;;;;;15.34;77.52;101461.75;6260238;22;20466;-86
2021/07/19 03:59:26;;;;;;;6.32;4.32;;;;;;;15.25;77.72;101466.28;6264655;22;20019;-86
2021/07/19 04:01:55;;;;;;;11.07;4.15;;;;;;;15.17;77.72;101463.78;6263324;22;20028;-87
2021/07/19 04:04:37;;;;;;;6.18;3.75;;;;;;;15.10;78.11;101470.06;6235249;22;20026;-86
2021/07/19 04:07:06;;;;;;;5.50;4.72;;;;;;;15.01;78.84;101476.31;6241588;22;20027;-87
2021/07/19 04:09:34;;;;;;;9.07;4.25;;;;;;;14.94;79.22;101464.09;6237861;22;20443;-87
2021/07/19 04:12:01;;;;;;;7.00;4.63;;;;;;;14.91;79.79;101470.28;6240659;22;20356;-86
2021/07/19 04:14:28;;;;;;;16.40;5.38;;;;;;;14.88;79.97;101467.72;6258718;22;20023;-86
2021/07/19 04:16:58;;;;;;;10.73;4.93;;;;;;;14.88;80.64;101465.94;6239719;22;20024;-87
2021/07/19 04:19:29;;;;;;;6.65;4.75;;;;;;;14.90;81.30;101473.84;6264408;22;20122;-86
2021/07/19 04:21:59;;;;;;;10.95;5.25;;;;;;;14.89;81.61;101467.69;6263248;22;20020;-86
2021/07/19 04:24:26;;;;;;;9.13;5.40;;;;;;;14.91;81.81;101465.00;6237375;22;20027;-86
2021/07/19 04:26:54;;;;;;;7.90;5.05;;;;;;;14.88;82.66;101471.19;6237200;22;20023;-87
2021/07/19 04:29:24;;;;;;;18.85;7.10;;;;;;;14.86;83.62;101473.00;6239215;22;20058;-84
2021/07/19 04:31:59;;;;;;;12.70;5.40;;;;;;;14.83;83.48;101465.13;6236708;22;20039;-84
2021/07/19 04:34:34;;;;;;;7.13;4.82;;;;;;;14.83;83.42;101469.53;6235019;22;20028;-86
2021/07/19 04:37:07;;;;;;;8.73;5.35;;;;;;;14.82;83.45;101473.06;6264285;22;20027;-84
2021/07/19 04:39:37;;;;;;;8.30;4.38;;;;;;;14.81;83.66;101479.22;6236189;22;20352;-86
2021/07/19 04:42:08;;;;;;;6.93;4.47;;;;;;;14.84;83.70;101471.28;6262770;22;20023;-85
2021/07/19 04:44:36;;;;;;;10.40;5.10;;;;;;;14.87;83.26;101482.66;6261703;22;20390;-85
2021/07/19 04:47:18;;;;;;;7.43;4.53;;;;;;;14.89;83.23;101478.22;6287432;22;20035;-87
2021/07/19 04:49:48;;;;;;;8.95;4.72;;;;;;;14.95;82.95;101473.75;6240800;22;20019;-85
2021/07/19 04:52:37;;;;;;;10.57;5.07;;;;;;;15.03;82.69;101485.94;6265716;22;20589;-86
2021/07/19 04:55:17;;;;;;;11.77;3.83;;;;;;;15.12;82.15;101484.97;6239660;22;20323;-85
2021/07/19 04:57:45;;;;;;;11.05;4.28;;;;;;;15.20;81.61;101490.09;6263675;22;20445;-87
2021/07/19 05:00:23;;;;;;;7.65;4.55;;;;;;;15.31;81.53;101485.53;6239176;22;20028;-86
2021/07/19 05:02:51;;;;;;;14.63;5.82;;;;;;;15.46;80.97;101487.06;6238289;22;20023;-87
2021/07/19 05:05:23;;;;;;;6.78;4.00;;;;;;;15.53;80.48;101486.06;6239294;22;20019;-87
2021/07/19 05:07:53;;;;;;;14.52;5.13;;;;;;;15.62;80.45;101484.16;6261722;22;20020;-87
2021/07/19 05:10:23;;;;;;;7.43;5.57;;;;;;;15.74;80.28;101483.09;6239983;22;20031;-88
2021/07/19 05:12:55;;;;;;;10.82;4.40;;;;;;;15.85;79.85;101484.69;6262656;22;20583;-87
2021/07/19 05:15:25;;;;;;;12.82;4.97;;;;;;;16.00;79.35;101483.53;6224759;22;20055;-88
2021/07/19 05:17:53;;;;;;;9.77;5.10;;;;;;;16.15;78.81;101492.06;6242834;22;20428;-86
2021/07/19 05:20:23;;;;;;;9.07;5.00;;;;;;;16.30;78.53;101485.63;6235594;22;20190;-87
2021/07/19 05:22:53;;;;;;;7.90;4.93;;;;;;;16.38;78.25;101481.91;6238692;22;20023;-86
2021/07/19 05:25:30;;;;;;;14.45;5.03;;;;;;;16.44;78.44;101488.00;6236082;22;20031;-85
2021/07/19 05:27:59;;;;;;;11.88;5.15;;;;;;;16.48;78.66;101485.25;6238917;22;20418;-85
2021/07/19 05:30:27;;;;;;;9.40;5.45;;;;;;;16.54;78.10;101492.19;6289243;22;20023;-86
2021/07/19 05:32:55;;;;;;;13.65;4.85;;;;;;;16.63;78.04;101496.41;6235420;22;20035;-85
2021/07/19 05:35:23;;;;;;;13.70;6.55;;;;;;;16.66;77.77;101484.03;6264432;22;20023;-85
2021/07/19 05:37:52;;;;;;;10.18;5.57;;;;;;;16.63;77.67;101488.50;6235297;22;20027;-86
2021/07/19 05:40:19;;;;;;;9.45;5.47;;;;;;;16.59;77.56;101484.19;6236464;22;20027;-85
2021/07/19 05:42:49;;;;;;;9.02;5.00;;;;;;;16.62;77.55;101487.63;6235144;22;20020;-85
2021/07/19 05:45:16;;;;;;;6.93;4.50;;;;;;;16.72;76.73;101490.09;6236155;22;20023;-85
2021/07/19 05:47:44;;;;;;;13.93;4.85;;;;;;;16.86;75.65;101490.66;6238321;22;20107;-84
2021/07/19 05:50:12;;;;;;;10.20;5.28;;;;;;;17.06;74.35;101492.00;6234415;22;20028;-86
2021/07/19 05:52:41;;;;;;;6.47;3.80;;;;;;;17.30;72.96;101498.50;6236787;22;20065;-87
2021/07/19 05:55:12;;;;;;;9.60;4.05;;;;;;;17.51;70.93;101490.06;6258951;22;20097;-85
2021/07/19 05:57:39;;;;;;;6.85;3.58;;;;;;;17.65;69.67;101492.38;6237941;22;20028;-88
2021/07/19 06:00:11;;;;;;;9.05;3.97;;;;;;;17.73;68.32;101497.47;6236102;22;20101;-88
2021/07/19 06:02:38;;;;;;;6.85;3.70;;;;;;;17.83;67.73;101496.34;6263901;22;20361;-86
2021/07/19 06:05:06;;;;;;;9.98;3.22;;;;;;;17.84;66.98;101487.44;6239424;22;20019;-87
2021/07/19 06:07:34;;;;;;;6.93;3.67;;;;;;;17.81;65.96;101492.84;6261041;22;20597;-85
2021/07/19 06:10:04;;;;;;;6.32;3.78;;;;;;;17.79;65.80;101492.00;6262810;22;20051;-87
2021/07/19 06:12:30;;;;;;;4.57;2.92;;;;;;;17.84;65.99;101498.03;6260473;22;20377;-88
2021/07/19 06:14:57;;;;;;;11.23;3.42;;;;;;;17.91;65.11;101500.53;6262188;22;20024;-87
2021/07/19 06:17:23;;;;;;;6.90;3.25;;;;;;;17.93;64.31;101506.72;6236269;22;20066;-87
2021/07/19 06:19:50;;;;;;;5.57;3.55;;;;;;;17.90;63.52;101501.44;6235809;22;20440;-85
2021/07/19 06:22:17;;;;;;;7.43;3.75;;;;;;;17.86;63.92;101504.19;6238055;22;20019;-86
2021/07/19 06:24:45;;;;;;;8.73;3.75;;;;;;;17.85;63.81;101514.81;6233520;22;20027;-85
2021/07/19 06:27:12;;;;;;;8.32;3.78;;;;;;;17.83;63.49;101503.38;6262955;22;20027;-85
2021/07/19 06:29:39;;;;;;;6.15;3.70;;;;;;;17.88;63.09;101509.44;6236178;22;20023;-85
2021/07/19 06:32:05;;;;;;;8.52;3.60;;;;;;;17.95;62.55;101510.19;6236190;22;20358;-86
2021/07/19 06:34:32;;;;;;;10.70;3.53;;;;;;;18.00;61.98;101510.94;6262643;22;20476;-84
2021/07/19 06:37:04;;;;;;;6.13;2.83;;;;;;;18.03;62.20;101513.50;6259212;22;20219;-85
2021/07/19 06:39:34;;;;;;;3.97;2.60;;;;;;;18.08;61.87;101508.06;6262043;22;20026;-86
2021/07/19 06:42:00;;;;;;;6.28;3.17;;;;;;;18.09;61.34;101507.19;6234589;22;20019;-86
2021/07/19 06:44:27;;;;;;;9.82;3.33;;;;;;;18.09;61.50;101510.69;6262165;22;20030;-86
2021/07/19 06:46:56;;;;;;;9.93;3.10;;;;;;;18.11;61.13;101513.31;6236638;22;20028;-85
2021/07/19 06:49:25;;;;;;;5.00;2.88;;;;;;;18.13;60.89;101512.38;6237385;22;20050;-87
2021/07/19 06:51:52;;;;;;;4.70;2.95;;;;;;;18.16;61.07;101506.97;6263046;22;20016;-89
2021/07/19 06:54:18;;;;;;;4.13;3.65;;;;;;;18.20;60.68;101518.38;6234362;22;20019;-88
2021/07/19 06:56:48;;;;;;;6.55;3.25;;;;;;;18.24;60.46;101516.47;6235868;22;20027;-86
2021/07/19 06:59:19;;;;;;;5.88;3.00;;;;;;;18.31;60.45;101526.00;6235311;22;20039;-85
2021/07/19 07:01:47;;;;;;;5.13;2.60;;;;;;;18.40;59.92;101522.25;6237241;22;20251;-84
2021/07/19 07:04:14;;;;;;;8.27;3.60;;;;;;;18.47;59.84;101529.09;6237635;22;20023;-86
2021/07/19 07:06:41;;;;;;;10.05;3.38;;;;;;;18.57;59.47;101522.63;6258319;22;20026;-86
2021/07/19 07:09:11;;;;;;;12.07;3.10;;;;;;;18.70;58.92;101530.25;6238730;22;20735;-85
2021/07/19 07:11:41;;;;;;;7.10;3.35;;;;;;;18.83;58.59;101534.28;6234573;22;20020;-86
2021/07/19 07:14:07;;;;;;;5.00;3.03;;;;;;;18.98;58.54;101520.59;6236606;22;20024;-85
2021/07/19 07:16:36;;;;;;;5.55;2.97;;;;;;;19.18;58.16;101527.06;6220781;22;20024;-86
2021/07/19 07:19:05;;;;;;;7.72;3.30;;;;;;;19.32;57.29;101526.59;6262021;22;20379;-85
2021/07/19 07:21:32;;;;;;;7.03;3.88;;;;;;;19.40;56.80;101531.69;6237688;22;20076;-87
2021/07/19 07:23:59;;;;;;;8.98;3.97;;;;;;;19.49;57.00;101518.13;6235183;22;20089;-84
2021/07/19 07:26:27;;;;;;;6.85;2.88;;;;;;;19.58;55.62;101519.59;6263995;22;20019;-87
2021/07/19 07:28:55;;;;;;;11.40;2.05;;;;;;;19.63;54.84;101518.53;6237364;22;20407;-86
2021/07/19 07:31:26;;;;;;;6.45;2.67;;;;;;;19.82;54.31;101516.16;6238186;22;20031;-88
2021/07/19 07:33:57;;;;;;;3.10;2.15;;;;;;;20.16;52.85;101511.47;6238932;22;20410;-88
2021/07/19 07:36:25;;;;;;;7.35;2.20;;;;;;;20.45;51.28;101514.84;6261221;22;20043;-87
2021/07/19 07:38:52;;;;;;;5.95;2.58;;;;;;;20.51;51.26;101509.31;6264158;22;20085;-86
2021/07/19 07:41:22;;;;;;;8.85;2.92;;;;;;;20.69;50.92;101507.78;6235511;22;20023;-87
2021/07/19 07:43:50;;;;;;;5.57;2.28;;;;;;;21.24;49.87;101507.44;6263096;22;20102;-86
2021/07/19 07:46:17;;;;;;;5.10;2.28;;;;;;;21.88;48.63;101504.88;6235763;22;20031;-88
2021/07/19 07:48:44;;;;;;;4.40;2.42;;;;;;;22.62;46.78;101504.28;6238293;22;20019;-87
2021/07/19 07:51:16;;;;;;;3.25;1.95;;;;;;;23.21;44.44;101506.91;6239881;22;20422;-86
2021/07/19 07:53:43;;;;;;;5.78;2.13;;;;;;;23.49;43.82;101501.03;6235314;22;20031;-88
2021/07/19 07:56:10;;;;;;;4.50;2.53;;;;;;;23.44;43.48;101501.28;6289988;22;20081;-85
2021/07/19 07:58:38;;;;;;;7.63;2.80;;;;;;;23.14;43.44;101506.34;6235358;22;20436;-85
2021/07/19 08:01:04;;;;;;;4.60;2.45;;;;;;;22.73;44.39;101501.97;6237410;22;20514;-85
2021/07/19 08:03:34;;;;;;;4.97;2.30;;;;;;;22.27;44.89;101515.56;6264646;22;20571;-86
2021/07/19 08:06:00;;;;;;;5.22;2.30;;;;;;;21.94;45.67;101508.13;6260514;22;20024;-85
2021/07/19 08:08:27;;;;;;;6.22;2.05;;;;;;;21.75;45.48;101508.03;6266729;22;20035;-86
2021/07/19 08:10:53;;;;;;;3.47;2.15;;;;;;;21.59;45.64;101510.50;6238214;22;20016;-87
2021/07/19 08:13:20;;;;;;;4.15;2.65;;;;;;;21.45;46.06;101502.16;6239279;22;20398;-85
2021/07/19 08:15:48;;;;;;;4.40;2.30;;;;;;;21.35;46.21;101511.47;6237366;22;20028;-86
2021/07/19 08:18:19;;;;;;;5.97;2.40;;;;;;;21.17;46.48;101500.59;6239973;22;20332;-87
2021/07/19 08:20:47;;;;;;;4.20;1.95;;;;;;;21.63;45.73;101503.25;6252292;22;20077;-85
2021/07/19 08:26:42;;;;;;;3.83;1.88;;;;;;;22.49;43.48;101503.97;6214070;22;20020;-86
2021/07/19 08:29:12;;;;;;;5.05;1.98;;;;;;;23.05;41.75;101502.25;6249279;22;20288;-88
2021/07/19 08:31:44;;;;;;;3.58;2.42;;;;;;;23.32;41.03;101499.19;6240517;22;20032;-88
2021/07/19 08:34:13;;;;;;;6.60;2.53;;;;;;;23.43;40.54;101490.69;6261543;22;20398;-86
2021/07/19 08:36:55;;;;;;;;;;;;;;;;;;;;;
2021/07/19 08:42:12;;;;;;;3.30;2.08;;;;;;;24.17;38.45;101478.00;6273865;22;20019;-86
2021/07/19 08:44:40;;;;;;;3.60;2.03;;;;;;;25.17;36.79;101471.66;6266428;22;20043;-86
2021/07/19 08:47:13;;;;;;;6.00;2.63;;;;;;;25.55;36.34;101482.88;6262242;22;20546;-86
2021/07/19 08:49:42;;;;;;;2.58;2.15;;;;;;;25.45;36.01;101478.13;6240880;22;20019;-86
2021/07/19 08:52:08;;;;;;;2.30;2.13;;;;;;;25.33;36.37;101477.88;6239188;22;20277;-86
2021/07/19 08:54:42;;;;;;;3.17;1.92;;;;;;;25.59;36.30;101475.47;6262713;22;20308;-86
2021/07/19 08:57:12;;;;;;;;;;;;;;;25.98;34.91;101476.72;6261324;22;20759;-86
2021/07/19 08:59:40;;;;;;;3.95;1.75;;;;;;;25.97;34.77;101471.44;6236786;22;19967;-85
2021/07/19 09:02:10;;;;;;;6.35;2.40;;;;;;;25.64;34.69;101468.03;6264313;22;20485;-88
2021/07/19 09:04:42;;;;;;;2.63;2.20;;;;;;;25.08;36.03;101465.91;6233808;22;20028;-86
2021/07/19 09:07:09;;;;;;;2.37;2.00;;;;;;;24.68;36.58;101464.59;6237672;22;20023;-85
2021/07/19 09:09:36;;;;;;;4.25;2.30;;;;;;;24.33;37.05;101468.22;6236352;22;20046;-86
2021/07/19 09:12:05;;;;;;;4.72;2.45;;;;;;;24.28;37.21;101464.94;6212167;22;20020;-86
2021/07/19 09:14:35;;;;;;;3.35;2.35;;;;;;;24.38;37.11;101467.97;6235425;22;20081;-87
2021/07/19 09:17:02;;;;;;;6.85;2.58;;;;;;;24.08;37.70;101463.34;6236572;22;20059;-87
2021/07/19 09:19:30;;;;;;;3.15;2.20;;;;;;;23.58;38.40;101463.19;6238276;22;20023;-87
2021/07/19 09:22:02;;;;;;;2.88;2.55;;;;;;;23.29;38.78;101467.31;6259726;22;20030;-86
2021/07/19 09:24:33;;;;;;;3.97;2.10;;;;;;;24.21;37.00;101463.53;6262594;22;20458;-85
2021/07/19 09:27:00;;;;;;;2.53;2.20;;;;;;;25.62;34.68;101464.59;6286066;22;20047;-86
2021/07/19 09:29:29;;;;;;;4.53;3.63;;;;;;;27.13;32.23;101445.38;6238236;22;20098;-86
2021/07/19 09:32:01;;;;;;;2.53;2.28;;;;;;;27.98;30.43;101448.59;6227773;22;20389;-86
2021/07/19 09:34:32;;;;;;;3.10;2.47;;;;;;;28.59;29.29;101445.19;6234269;22;20019;-87
2021/07/19 09:37:05;;;;;;;7.80;3.15;;;;;;;28.83;28.98;101439.84;6263133;22;20028;-86
2021/07/19 09:39:49;;;;;;;13.50;3.30;;;;;;;29.08;28.45;101434.47;6235203;22;20565;-86
2021/07/19 09:42:22;;;;;;;5.70;2.42;;;;;;;28.53;28.73;101434.88;6218326;22;20380;-86
2021/07/19 09:45:00;;;;;;;;;;;;;;;28.11;29.11;101436.97;6237138;22;20038;-87
2021/07/19 09:47:41;;;;;;;4.10;2.20;;;;;;;27.60;29.77;101432.41;6261343;22;20255;-89
2021/07/19 09:50:23;;;;;;;3.83;3.00;;;;;;;26.90;30.89;101437.03;6234929;22;20020;-87
2021/07/19 09:52:58;;;;;;;6.93;2.85;;;;;;;26.27;31.99;101430.28;6237264;22;20054;-86
2021/07/19 09:55:27;;;;;;;4.78;2.60;;;;;;;25.98;32.46;101428.44;6288458;22;20568;-87
2021/07/19 09:58:00;;;;;;;2.97;2.63;;;;;;;25.91;32.57;101427.94;6260705;22;20027;-88
2021/07/19 10:00:32;;;;;;;4.53;2.78;;;;;;;26.40;31.54;101428.56;6236833;22;20392;-88
2021/07/19 10:03:10;;;;;;;4.43;3.10;;;;;;;26.81;31.21;101427.75;6260135;22;20019;-85
2021/07/19 10:05:40;;;;;;;4.20;3.25;;;;;;;27.53;30.31;101426.59;6262646;22;20019;-88
2021/07/19 10:08:07;;;;;;;5.43;3.08;;;;;;;28.75;28.94;101420.72;6235348;22;20439;-86
2021/07/19 10:10:41;;;;;;;3.13;2.65;;;;;;;28.97;28.26;101417.28;6264098;22;20054;-86
2021/07/19 10:13:12;;;;;;;4.00;2.92;;;;;;;28.43;28.64;101415.81;6263982;22;20023;-87
2021/07/19 10:15:41;;;;;;;4.05;2.95;;;;;;;27.52;30.17;101425.75;6235816;22;20102;-87
2021/07/19 10:18:11;;;;;;;6.88;3.55;;;;;;;26.58;31.44;101418.44;6240343;22;20775;-87
2021/07/19 10:20:40;;;;;;;4.18;2.95;;;;;;;25.99;32.39;101421.25;6262590;22;20260;-88
2021/07/19 10:23:08;;;;;;;5.30;3.47;;;;;;;25.54;33.16;101432.88;6240187;22;20028;-87
2021/07/19 10:25:37;;;;;;;5.13;3.28;;;;;;;25.13;34.12;101425.44;6289453;22;20020;-89
2021/07/19 10:28:05;;;;;;;4.25;3.17;;;;;;;24.54;34.78;101426.03;6263875;22;20032;-85
2021/07/19 10:30:32;;;;;;;3.75;2.83;;;;;;;24.18;35.55;101429.78;6239744;22;20023;-87
2021/07/19 10:33:00;;;;;;;5.55;3.40;;;;;;;24.14;36.01;101425.53;6236762;22;20023;-85
2021/07/19 10:35:33;;;;;;;6.25;4.50;;;;;;;24.21;36.11;101421.59;6238860;22;20358;-87
2021/07/19 10:38:06;;;;;;;;;;;;;;;24.33;35.93;101422.75;6262984;22;20048;-86
2021/07/19 10:40:35;;;;;;;4.18;3.40;;;;;;;25.05;35.12;101425.88;6238826;22;19925;-87
2021/07/19 10:43:12;;;;;;;6.75;3.90;;;;;;;25.33;35.38;101426.06;6234634;22;20027;-88
2021/07/19 10:45:50;;;;;;;4.05;3.13;;;;;;;25.17;35.43;101416.25;6262047;22;20023;-85
2021/07/19 10:48:28;;;;;;;6.30;3.53;;;;;;;24.83;36.02;101422.72;6240560;22;20389;-84
2021/07/19 10:50:57;;;;;;;6.93;4.20;;;;;;;24.35;37.16;101417.31;6263019;22;20022;-86
2021/07/19 10:53:28;;;;;;;4.32;3.55;;;;;;;23.85;38.32;101417.25;6237825;22;20082;-86
2021/07/19 10:56:08;;;;;;;13.27;4.93;;;;;;;23.75;38.88;101424.91;6236792;22;20663;-85
2021/07/19 10:58:46;;;;;;;9.35;5.70;;;;;;;23.70;39.11;101426.06;6264886;22;20559;-87
2021/07/19 11:01:26;;;;;;;4.63;3.58;;;;;;;23.67;38.59;101418.22;6236051;22;20024;-85
2021/07/19 11:03:56;;;;;;;7.38;4.90;;;;;;;23.64;39.13;101426.41;6238899;22;20024;-87
2021/07/19 11:06:41;;;;;;;7.47;4.55;;;;;;;23.68;39.26;101418.13;6264711;22;20106;-86
2021/07/19 11:09:10;;;;;;;7.15;4.05;;;;;;;23.55;39.10;101414.38;6241070;22;20035;-87
2021/07/19 11:11:40;;;;;;;4.53;4.13;;;;;;;23.43;39.42;101418.53;6263635;22;20431;-87
2021/07/19 11:14:25;;;;;;;10.85;5.75;;;;;;;23.31;39.61;101412.00;6234257;22;20058;-88
2021/07/19 11:16:55;;;;;;;5.80;3.40;;;;;;;23.39;39.66;101411.63;6226076;22;20024;-86
2021/07/19 11:19:39;;;;;;;6.20;4.28;;;;;;;23.48;39.40;101415.59;6210418;22;20114;-87
2021/07/19 11:22:28;;;;;;;6.32;3.47;;;;;;;23.65;38.38;101420.09;6263579;22;20447;-87
2021/07/19 11:25:10;;;;;;;5.22;3.63;;;;;;;23.99;38.40;101418.34;6233889;22;20437;-86
2021/07/19 11:27:46;;;;;;;4.53;3.42;;;;;;;24.10;37.99;101410.63;6238227;22;20024;-85
2021/07/19 11:30:18;;;;;;;4.22;3.83;;;;;;;24.08;37.78;101405.34;6233942;22;20054;-88
2021/07/19 11:32:45;;;;;;;4.97;3.90;;;;;;;24.00;38.44;101406.69;6236796;22;20020;-86
2021/07/19 11:35:23;;;;;;;8.02;5.20;;;;;;;24.07;37.86;101403.63;6263412;22;20066;-88
2021/07/19 11:37:56;;;;;;;6.25;3.10;;;;;;;24.21;37.92;101407.34;6259129;22;20027;-87
2021/07/19 11:40:32;;;;;;;;;;;;;;;24.38;37.39;101401.94;6264758;22;20020;-87
2021/07/19 11:43:15;;;;;;;7.90;3.72;;;;;;;24.68;36.81;101400.34;6233690;22;19915;-87
2021/07/19 11:45:47;;;;;;;4.60;3.85;;;;;;;24.86;36.65;101399.31;6262367;22;20024;-88
2021/07/19 11:48:15;;;;;;;6.47;3.70;;;;;;;25.09;36.56;101395.28;6259132;22;20447;-87